createdAt,value
2018-09-08T00:00:21.930Z,1012.78
2018-09-08T00:01:21.929Z,1012.84
2018-09-08T00:02:21.926Z,1012.87
2018-09-08T00:03:21.922Z,1012.85
2018-09-08T00:04:21.925Z,1012.88
2018-09-08T00:05:21.923Z,1012.87
2018-09-08T00:06:21.967Z,1012.90
2018-09-08T00:07:21.919Z,1012.88
2018-09-08T00:08:21.919Z,1012.94
2018-09-08T00:09:21.916Z,1012.93
2018-09-08T00:10:21.914Z,1012.96
2018-09-08T00:11:21.916Z,1012.92
2018-09-08T00:12:21.915Z,1012.92
2018-09-08T00:13:21.915Z,1012.92
2018-09-08T00:14:21.911Z,1012.94
2018-09-08T00:15:21.910Z,1012.96
2018-09-08T00:16:21.908Z,1012.98
2018-09-08T00:17:21.905Z,1013.00
2018-09-08T00:18:21.903Z,1012.99
2018-09-08T00:19:21.902Z,1013.06
2018-09-08T00:20:21.902Z,1013.09
2018-09-08T00:21:21.902Z,1013.10
2018-09-08T00:22:21.901Z,1013.13
2018-09-08T00:23:21.899Z,1013.12
2018-09-08T00:24:21.895Z,1013.16
2018-09-08T00:25:21.894Z,1013.15
2018-09-08T00:26:21.893Z,1013.13
2018-09-08T00:27:21.888Z,1013.12
2018-09-08T00:28:21.888Z,1013.09
2018-09-08T00:29:21.887Z,1013.06
2018-09-08T00:30:21.882Z,1013.03
2018-09-08T00:31:21.884Z,1012.97
2018-09-08T00:32:21.883Z,1012.93
2018-09-08T00:33:21.881Z,1012.90
2018-09-08T00:34:21.880Z,1012.94
2018-09-08T00:35:21.878Z,1012.97
2018-09-08T00:36:21.874Z,1013.03
2018-09-08T00:37:21.875Z,1013.09
2018-09-08T00:38:21.905Z,1013.12
2018-09-08T00:39:21.869Z,1013.10
2018-09-08T00:40:21.868Z,1013.12
2018-09-08T00:41:21.868Z,1013.13
2018-09-08T00:42:21.868Z,1013.14
2018-09-08T00:43:21.868Z,1013.12
2018-09-08T00:44:21.862Z,1013.12
2018-09-08T00:45:21.862Z,1013.13
2018-09-08T00:46:21.860Z,1013.14
2018-09-08T00:47:21.859Z,1013.11
2018-09-08T00:48:21.854Z,1013.15
2018-09-08T00:49:21.854Z,1013.15
2018-09-08T00:50:21.850Z,1013.16
2018-09-08T00:51:21.851Z,1013.20
2018-09-08T00:52:21.846Z,1013.21
2018-09-08T00:53:21.845Z,1013.22
2018-09-08T00:54:21.841Z,1013.22
2018-09-08T00:55:21.844Z,1013.22
2018-09-08T00:56:21.839Z,1013.22
2018-09-08T00:57:21.839Z,1013.23
2018-09-08T00:58:21.836Z,1013.21
2018-09-08T00:59:21.835Z,1013.24
2018-09-08T01:00:21.836Z,1013.22
2018-09-08T01:01:21.830Z,1013.27
2018-09-08T01:02:21.834Z,1013.24
2018-09-08T01:03:21.826Z,1013.27
2018-09-08T01:04:21.832Z,1013.26
2018-09-08T01:05:21.832Z,1013.30
2018-09-08T01:06:21.823Z,1013.27
2018-09-08T01:07:21.817Z,1013.32
2018-09-08T01:08:21.817Z,1013.34
2018-09-08T01:09:21.816Z,1013.38
2018-09-08T01:10:21.813Z,1013.37
2018-09-08T01:11:21.811Z,1013.37
2018-09-08T01:12:21.811Z,1013.42
2018-09-08T01:13:21.807Z,1013.40
2018-09-08T01:14:21.804Z,1013.43
2018-09-08T01:15:21.803Z,1013.41
2018-09-08T01:16:22.606Z,1013.43
2018-09-08T01:17:21.800Z,1013.45
2018-09-08T01:18:21.796Z,1013.40
2018-09-08T01:19:21.796Z,1013.39
2018-09-08T01:20:21.796Z,1013.37
2018-09-08T01:21:21.793Z,1013.41
2018-09-08T01:22:21.791Z,1013.42
2018-09-08T01:23:21.788Z,1013.47
2018-09-08T01:24:21.788Z,1013.43
2018-09-08T01:25:21.787Z,1013.44
2018-09-08T01:26:21.781Z,1013.44
2018-09-08T01:27:21.777Z,1013.44
2018-09-08T01:28:21.779Z,1013.45
2018-09-08T01:29:21.776Z,1013.49
2018-09-08T01:30:21.777Z,1013.45
2018-09-08T01:31:21.773Z,1013.45
2018-09-08T01:32:21.769Z,1013.43
2018-09-08T01:33:21.769Z,1013.50
2018-09-08T01:34:21.764Z,1013.53
2018-09-08T01:35:21.762Z,1013.52
2018-09-08T01:36:21.760Z,1013.53
2018-09-08T01:37:21.760Z,1013.59
2018-09-08T01:38:21.757Z,1013.60
2018-09-08T01:39:21.754Z,1013.56
2018-09-08T01:40:21.753Z,1013.59
2018-09-08T01:41:21.750Z,1013.62
2018-09-08T01:42:21.750Z,1013.61
2018-09-08T01:43:21.747Z,1013.63
2018-09-08T01:44:21.746Z,1013.64
2018-09-08T01:45:21.747Z,1013.59
2018-09-08T01:46:21.741Z,1013.65
2018-09-08T01:47:21.740Z,1013.65
2018-09-08T01:48:21.739Z,1013.65
2018-09-08T01:49:21.738Z,1013.64
2018-09-08T01:50:21.736Z,1013.63
2018-09-08T01:51:21.731Z,1013.64
2018-09-08T01:52:21.732Z,1013.66
2018-09-08T01:53:21.729Z,1013.66
2018-09-08T01:54:21.728Z,1013.66
2018-09-08T01:55:21.725Z,1013.63
2018-09-08T01:56:21.724Z,1013.64
2018-09-08T01:57:21.723Z,1013.61
2018-09-08T01:58:21.720Z,1013.61
2018-09-08T01:59:21.715Z,1013.64
2018-09-08T02:00:21.716Z,1013.63
2018-09-08T02:01:21.716Z,1013.67
2018-09-08T02:02:21.727Z,1013.60
2018-09-08T02:03:21.709Z,1013.60
2018-09-08T02:04:21.713Z,1013.59
2018-09-08T02:05:21.708Z,1013.61
2018-09-08T02:06:21.706Z,1013.60
2018-09-08T02:07:21.707Z,1013.62
2018-09-08T02:08:21.704Z,1013.61
2018-09-08T02:09:21.702Z,1013.59
2018-09-08T02:10:21.699Z,1013.57
2018-09-08T02:11:21.697Z,1013.60
2018-09-08T02:12:21.698Z,1013.59
2018-09-08T02:13:21.693Z,1013.59
2018-09-08T02:14:21.692Z,1013.61
2018-09-08T02:15:21.687Z,1013.62
2018-09-08T02:16:21.686Z,1013.63
2018-09-08T02:17:21.692Z,1013.63
2018-09-08T02:18:21.692Z,1013.63
2018-09-08T02:19:21.681Z,1013.61
2018-09-08T02:20:21.678Z,1013.67
2018-09-08T02:21:21.678Z,1013.69
2018-09-08T02:22:21.680Z,1013.65
2018-09-08T02:23:21.674Z,1013.68
2018-09-08T02:24:21.671Z,1013.71
2018-09-08T02:25:21.733Z,1013.68
2018-09-08T02:26:21.677Z,1013.69
2018-09-08T02:27:21.667Z,1013.71
2018-09-08T02:28:21.667Z,1013.69
2018-09-08T02:29:21.663Z,1013.70
2018-09-08T02:30:21.660Z,1013.66
2018-09-08T02:31:21.662Z,1013.69
2018-09-08T02:32:21.659Z,1013.68
2018-09-08T02:33:21.657Z,1013.70
2018-09-08T02:34:21.655Z,1013.71
2018-09-08T02:35:21.651Z,1013.68
2018-09-08T02:36:21.648Z,1013.70
2018-09-08T02:37:21.644Z,1013.72
2018-09-08T02:38:21.649Z,1013.74
2018-09-08T02:39:21.644Z,1013.71
2018-09-08T02:40:21.643Z,1013.76
2018-09-08T02:41:21.640Z,1013.75
2018-09-08T02:42:21.637Z,1013.75
2018-09-08T02:43:21.633Z,1013.79
2018-09-08T02:44:21.633Z,1013.74
2018-09-08T02:45:21.630Z,1013.77
2018-09-08T02:46:21.628Z,1013.80
2018-09-08T02:47:21.626Z,1013.83
2018-09-08T02:48:21.627Z,1013.81
2018-09-08T02:49:21.621Z,1013.85
2018-09-08T02:50:21.620Z,1013.86
2018-09-08T02:51:21.618Z,1013.86
2018-09-08T02:52:22.132Z,1013.84
2018-09-08T02:53:21.623Z,1013.86
2018-09-08T02:54:21.613Z,1013.86
2018-09-08T02:55:21.611Z,1013.81
2018-09-08T02:56:21.607Z,1013.82
2018-09-08T02:57:21.608Z,1013.82
2018-09-08T02:58:21.604Z,1013.85
2018-09-08T02:59:21.602Z,1013.90
2018-09-08T03:00:21.601Z,1013.86
2018-09-08T03:01:21.597Z,1013.85
2018-09-08T03:02:21.598Z,1013.87
2018-09-08T03:03:21.590Z,1013.88
2018-09-08T03:04:21.589Z,1013.86
2018-09-08T03:05:21.592Z,1013.85
2018-09-08T03:06:22.134Z,1013.84
2018-09-08T03:07:21.582Z,1013.86
2018-09-08T03:08:21.584Z,1013.86
2018-09-08T03:09:21.579Z,1013.88
2018-09-08T03:10:21.576Z,1013.90
2018-09-08T03:11:21.575Z,1013.88
2018-09-08T03:12:21.575Z,1013.89
2018-09-08T03:13:21.565Z,1013.90
2018-09-08T03:14:21.567Z,1013.88
2018-09-08T03:15:21.564Z,1013.93
2018-09-08T03:16:21.561Z,1013.92
2018-09-08T03:17:21.561Z,1013.93
2018-09-08T03:18:21.556Z,1013.94
2018-09-08T03:19:21.553Z,1013.93
2018-09-08T03:20:21.551Z,1013.89
2018-09-08T03:21:21.548Z,1013.91
2018-09-08T03:22:21.549Z,1013.93
2018-09-08T03:23:21.546Z,1013.94
2018-09-08T03:24:21.540Z,1013.91
2018-09-08T03:25:21.537Z,1013.96
2018-09-08T03:26:21.539Z,1013.96
2018-09-08T03:27:21.532Z,1013.98
2018-09-08T03:28:21.531Z,1014.01
2018-09-08T03:29:21.529Z,1013.99
2018-09-08T03:30:21.527Z,1014.03
2018-09-08T03:31:21.524Z,1014.06
2018-09-08T03:32:21.520Z,1014.07
2018-09-08T03:33:21.521Z,1014.13
2018-09-08T03:34:21.515Z,1014.17
2018-09-08T03:35:21.515Z,1014.13
2018-09-08T03:36:21.511Z,1014.14
2018-09-08T03:37:21.509Z,1014.17
2018-09-08T03:38:21.505Z,1014.19
2018-09-08T03:39:22.146Z,1014.20
2018-09-08T03:40:21.500Z,1014.23
2018-09-08T03:41:21.498Z,1014.20
2018-09-08T03:42:21.505Z,1014.22
2018-09-08T03:43:21.491Z,1014.21
2018-09-08T03:44:21.489Z,1014.20
2018-09-08T03:45:21.487Z,1014.28
2018-09-08T03:46:21.485Z,1014.26
2018-09-08T03:47:21.485Z,1014.26
2018-09-08T03:48:21.479Z,1014.30
2018-09-08T03:49:21.478Z,1014.31
2018-09-08T03:50:21.476Z,1014.33
2018-09-08T03:51:21.469Z,1014.35
2018-09-08T03:52:21.470Z,1014.34
2018-09-08T03:53:21.465Z,1014.35
2018-09-08T03:54:21.462Z,1014.39
2018-09-08T03:55:21.461Z,1014.39
2018-09-08T03:56:21.460Z,1014.39
2018-09-08T03:57:21.456Z,1014.40
2018-09-08T03:58:21.451Z,1014.40
2018-09-08T03:59:21.448Z,1014.39
2018-09-08T04:00:21.442Z,1014.42
2018-09-08T04:01:21.448Z,1014.42
2018-09-08T04:02:21.442Z,1014.40
2018-09-08T04:03:21.436Z,1014.40
2018-09-08T04:04:21.435Z,1014.40
2018-09-08T04:05:21.433Z,1014.40
2018-09-08T04:06:21.432Z,1014.37
2018-09-08T04:07:21.426Z,1014.39
2018-09-08T04:08:21.424Z,1014.40
2018-09-08T04:09:21.422Z,1014.39
2018-09-08T04:10:21.419Z,1014.37
2018-09-08T04:11:21.508Z,1014.40
2018-09-08T04:12:21.413Z,1014.39
2018-09-08T04:13:21.409Z,1014.37
2018-09-08T04:14:21.406Z,1014.39
2018-09-08T04:15:21.411Z,1014.39
2018-09-08T04:16:21.401Z,1014.40
2018-09-08T04:17:21.398Z,1014.39
2018-09-08T04:18:21.398Z,1014.41
2018-09-08T04:19:21.393Z,1014.43
2018-09-08T04:20:21.391Z,1014.42
2018-09-08T04:21:21.388Z,1014.45
2018-09-08T04:22:21.384Z,1014.45
2018-09-08T04:23:21.380Z,1014.43
2018-09-08T04:24:21.378Z,1014.42
2018-09-08T04:25:21.378Z,1014.43
2018-09-08T04:26:21.374Z,1014.42
2018-09-08T04:27:21.369Z,1014.42
2018-09-08T04:28:21.366Z,1014.47
2018-09-08T04:29:21.370Z,1014.45
2018-09-08T04:30:21.359Z,1014.49
2018-09-08T04:31:21.361Z,1014.51
2018-09-08T04:32:21.360Z,1014.51
2018-09-08T04:33:21.352Z,1014.51
2018-09-08T04:34:21.349Z,1014.51
2018-09-08T04:35:21.347Z,1014.54
2018-09-08T04:36:21.342Z,1014.55
2018-09-08T04:37:21.341Z,1014.58
2018-09-08T04:38:21.337Z,1014.55
2018-09-08T04:39:21.332Z,1014.56
2018-09-08T04:40:21.327Z,1014.57
2018-09-08T04:41:21.328Z,1014.60
2018-09-08T04:42:21.320Z,1014.56
2018-09-08T04:43:21.320Z,1014.58
2018-09-08T04:44:21.317Z,1014.61
2018-09-08T04:45:21.314Z,1014.63
2018-09-08T04:46:21.318Z,1014.64
2018-09-08T04:47:21.307Z,1014.65
2018-09-08T04:48:21.306Z,1014.65
2018-09-08T04:49:21.397Z,1014.66
2018-09-08T04:50:21.300Z,1014.65
2018-09-08T04:51:21.295Z,1014.68
2018-09-08T04:52:21.293Z,1014.68
2018-09-08T04:53:21.288Z,1014.75
2018-09-08T04:54:21.296Z,1014.73
2018-09-08T04:55:21.283Z,1014.71
2018-09-08T04:56:21.279Z,1014.73
2018-09-08T04:57:21.277Z,1014.71
2018-09-08T04:58:21.274Z,1014.71
2018-09-08T04:59:21.276Z,1014.73
2018-09-08T05:00:21.270Z,1014.75
2018-09-08T05:01:21.263Z,1014.78
2018-09-08T05:02:21.291Z,1014.78
2018-09-08T05:03:21.258Z,1014.78
2018-09-08T05:04:21.253Z,1014.80
2018-09-08T05:05:21.252Z,1014.84
2018-09-08T05:06:21.250Z,1014.82
2018-09-08T05:07:21.246Z,1014.83
2018-09-08T05:08:21.243Z,1014.82
2018-09-08T05:09:21.241Z,1014.82
2018-09-08T05:10:21.237Z,1014.83
2018-09-08T05:11:21.231Z,1014.87
2018-09-08T05:12:21.232Z,1014.88
2018-09-08T05:13:21.233Z,1014.93
2018-09-08T05:14:21.226Z,1014.93
2018-09-08T05:15:21.221Z,1014.92
2018-09-08T05:16:21.219Z,1014.94
2018-09-08T05:17:21.215Z,1014.96
2018-09-08T05:18:21.212Z,1014.96
2018-09-08T05:19:21.208Z,1014.93
2018-09-08T05:20:21.205Z,1014.93
2018-09-08T05:21:21.204Z,1014.98
2018-09-08T05:22:21.200Z,1014.99
2018-09-08T05:23:21.195Z,1014.95
2018-09-08T05:24:21.204Z,1014.90
2018-09-08T05:25:21.190Z,1014.91
2018-09-08T05:26:21.188Z,1014.89
2018-09-08T05:27:21.191Z,1014.91
2018-09-08T05:28:21.182Z,1014.96
2018-09-08T05:29:21.178Z,1014.96
2018-09-08T05:30:21.185Z,1014.99
2018-09-08T05:31:21.173Z,1015.01
2018-09-08T05:32:21.170Z,1015.08
2018-09-08T05:33:21.168Z,1015.06
2018-09-08T05:34:21.171Z,1015.06
2018-09-08T05:35:21.165Z,1015.06
2018-09-08T05:36:21.164Z,1015.04
2018-09-08T05:37:21.152Z,1015.05
2018-09-08T05:38:21.157Z,1015.07
2018-09-08T05:39:21.151Z,1015.09
2018-09-08T05:40:21.150Z,1015.06
2018-09-08T05:41:21.145Z,1015.10
2018-09-08T05:42:21.145Z,1015.11
2018-09-08T05:43:21.141Z,1015.14
2018-09-08T05:44:21.144Z,1015.14
2018-09-08T05:45:21.139Z,1015.15
2018-09-08T05:46:21.136Z,1015.12
2018-09-08T05:47:21.134Z,1015.15
2018-09-08T05:48:21.131Z,1015.16
2018-09-08T05:49:21.128Z,1015.19
2018-09-08T05:50:21.129Z,1015.18
2018-09-08T05:51:21.131Z,1015.15
2018-09-08T05:52:21.125Z,1015.19
2018-09-08T05:53:21.124Z,1015.17
2018-09-08T05:54:21.129Z,1015.20
2018-09-08T05:55:21.126Z,1015.20
2018-09-08T05:56:21.119Z,1015.17
2018-09-08T05:57:21.122Z,1015.17
2018-09-08T05:58:21.187Z,1015.21
2018-09-08T05:59:21.121Z,1015.22
2018-09-08T06:00:21.119Z,1015.24
2018-09-08T06:01:21.125Z,1015.19
2018-09-08T06:02:21.125Z,1015.20
2018-09-08T06:03:21.119Z,1015.20
2018-09-08T06:04:21.119Z,1015.23
2018-09-08T06:05:21.123Z,1015.20
2018-09-08T06:06:21.127Z,1015.22
2018-09-08T06:07:21.123Z,1015.23
2018-09-08T06:08:21.119Z,1015.22
2018-09-08T06:09:21.127Z,1015.21
2018-09-08T06:10:21.179Z,1015.17
2018-09-08T06:11:21.120Z,1015.19
2018-09-08T06:12:21.128Z,1015.20
2018-09-08T06:13:21.124Z,1015.25
2018-09-08T06:14:21.126Z,1015.26
2018-09-08T06:15:21.130Z,1015.23
2018-09-08T06:16:21.127Z,1015.29
2018-09-08T06:17:21.151Z,1015.29
2018-09-08T06:18:21.193Z,1015.32
2018-09-08T06:19:21.132Z,1015.27
2018-09-08T06:20:21.135Z,1015.27
2018-09-08T06:21:21.133Z,1015.23
2018-09-08T06:22:21.138Z,1015.28
2018-09-08T06:23:21.134Z,1015.28
2018-09-08T06:24:21.172Z,1015.30
2018-09-08T06:25:21.193Z,1015.30
2018-09-08T06:26:21.144Z,1015.33
2018-09-08T06:27:21.145Z,1015.34
2018-09-08T06:28:21.157Z,1015.35
2018-09-08T06:29:21.149Z,1015.38
2018-09-08T06:30:21.149Z,1015.35
2018-09-08T06:31:21.152Z,1015.43
2018-09-08T06:32:21.158Z,1015.41
2018-09-08T06:33:21.171Z,1015.39
2018-09-08T06:34:21.159Z,1015.41
2018-09-08T06:35:21.251Z,1015.45
2018-09-08T06:36:21.180Z,1015.44
2018-09-08T06:37:21.173Z,1015.49
2018-09-08T06:38:21.170Z,1015.49
2018-09-08T06:39:21.168Z,1015.40
2018-09-08T06:40:21.170Z,1015.48
2018-09-08T06:41:21.175Z,1015.44
2018-09-08T06:42:21.180Z,1015.44
2018-09-08T06:43:21.178Z,1015.47
2018-09-08T06:44:21.185Z,1015.53
2018-09-08T06:45:21.184Z,1015.53
2018-09-08T06:46:21.187Z,1015.50
2018-09-08T06:47:21.188Z,1015.53
2018-09-08T06:48:21.195Z,1015.55
2018-09-08T06:49:21.199Z,1015.55
2018-09-08T06:50:21.197Z,1015.55
2018-09-08T06:51:21.201Z,1015.59
2018-09-08T06:52:21.261Z,1015.60
2018-09-08T06:53:21.207Z,1015.58
2018-09-08T06:54:21.211Z,1015.60
2018-09-08T06:55:21.209Z,1015.58
2018-09-08T06:56:21.211Z,1015.57
2018-09-08T06:57:21.218Z,1015.59
2018-09-08T06:58:21.220Z,1015.62
2018-09-08T06:59:21.225Z,1015.59
2018-09-08T07:00:21.228Z,1015.56
2018-09-08T07:01:21.232Z,1015.58
2018-09-08T07:02:21.236Z,1015.57
2018-09-08T07:03:21.267Z,1015.55
2018-09-08T07:04:21.246Z,1015.59
2018-09-08T07:05:21.246Z,1015.58
2018-09-08T07:06:21.248Z,1015.63
2018-09-08T07:07:21.250Z,1015.60
2018-09-08T07:08:21.255Z,1015.64
2018-09-08T07:09:21.261Z,1015.65
2018-09-08T07:10:21.266Z,1015.66
2018-09-08T07:11:21.269Z,1015.69
2018-09-08T07:12:21.271Z,1015.68
2018-09-08T07:13:21.275Z,1015.65
2018-09-08T07:14:21.284Z,1015.64
2018-09-08T07:15:21.282Z,1015.70
2018-09-08T07:16:21.284Z,1015.66
2018-09-08T07:17:21.290Z,1015.63
2018-09-08T07:18:21.296Z,1015.69
2018-09-08T07:19:21.298Z,1015.65
2018-09-08T07:20:21.304Z,1015.69
2018-09-08T07:21:21.306Z,1015.70
2018-09-08T07:22:21.311Z,1015.74
2018-09-08T07:23:21.315Z,1015.67
2018-09-08T07:24:21.319Z,1015.65
2018-09-08T07:25:21.324Z,1015.69
2018-09-08T07:26:21.327Z,1015.69
2018-09-08T07:27:21.326Z,1015.67
2018-09-08T07:28:21.331Z,1015.70
2018-09-08T07:29:21.339Z,1015.69
2018-09-08T07:30:21.343Z,1015.69
2018-09-08T07:31:21.346Z,1015.67
2018-09-08T07:32:21.358Z,1015.63
2018-09-08T07:33:21.353Z,1015.70
2018-09-08T07:34:21.357Z,1015.72
2018-09-08T07:35:21.359Z,1015.71
2018-09-08T07:36:21.368Z,1015.68
2018-09-08T07:37:21.434Z,1015.72
2018-09-08T07:38:21.370Z,1015.71
2018-09-08T07:39:21.373Z,1015.78
2018-09-08T07:40:21.379Z,1015.83
2018-09-08T07:41:21.379Z,1015.83
2018-09-08T07:42:21.383Z,1015.84
2018-09-08T07:43:21.384Z,1015.88
2018-09-08T07:44:21.383Z,1015.83
2018-09-08T07:45:21.388Z,1015.84
2018-09-08T07:46:21.388Z,1015.83
2018-09-08T07:47:21.389Z,1015.81
2018-09-08T07:48:21.397Z,1015.80
2018-09-08T07:49:21.393Z,1015.83
2018-09-08T07:50:21.397Z,1015.83
2018-09-08T07:51:21.397Z,1015.83
2018-09-08T07:52:21.399Z,1015.82
2018-09-08T07:53:21.465Z,1015.80
2018-09-08T07:54:21.404Z,1015.83
2018-09-08T07:55:21.415Z,1015.86
2018-09-08T07:56:21.404Z,1015.86
2018-09-08T07:57:21.405Z,1015.85
2018-09-08T07:58:21.411Z,1015.80
2018-09-08T07:59:21.476Z,1015.82
2018-09-08T08:00:21.413Z,1015.84
2018-09-08T08:01:21.412Z,1015.84
2018-09-08T08:02:21.409Z,1015.89
2018-09-08T08:03:21.415Z,1015.89
2018-09-08T08:04:21.414Z,1015.89
2018-09-08T08:05:21.415Z,1015.89
2018-09-08T08:06:21.419Z,1015.90
2018-09-08T08:07:21.416Z,1015.91
2018-09-08T08:08:21.422Z,1015.92
2018-09-08T08:09:21.420Z,1015.92
2018-09-08T08:10:21.420Z,1015.94
2018-09-08T08:11:21.423Z,1015.94
2018-09-08T08:12:22.299Z,1015.94
2018-09-08T08:13:21.422Z,1015.94
2018-09-08T08:14:21.458Z,1015.91
2018-09-08T08:15:21.418Z,1015.89
2018-09-08T08:16:21.422Z,1015.96
2018-09-08T08:17:21.427Z,1015.90
2018-09-08T08:18:21.425Z,1015.91
2018-09-08T08:19:21.429Z,1015.92
2018-09-08T08:20:21.425Z,1015.97
2018-09-08T08:21:21.429Z,1015.94
2018-09-08T08:22:21.437Z,1015.95
2018-09-08T08:23:21.548Z,1015.97
2018-09-08T08:24:21.433Z,1015.96
2018-09-08T08:25:21.433Z,1015.98
2018-09-08T08:26:21.437Z,1015.91
2018-09-08T08:27:21.439Z,1015.95
2018-09-08T08:28:21.432Z,1015.95
2018-09-08T08:29:21.434Z,1015.97
2018-09-08T08:30:21.434Z,1015.99
2018-09-08T08:31:21.436Z,1015.98
2018-09-08T08:32:21.438Z,1015.95
2018-09-08T08:33:21.436Z,1015.94
2018-09-08T08:34:21.440Z,1015.93
2018-09-08T08:35:21.440Z,1015.94
2018-09-08T08:36:21.441Z,1016.00
2018-09-08T08:37:21.485Z,1016.01
2018-09-08T08:38:21.443Z,1015.99
2018-09-08T08:39:21.440Z,1016.00
2018-09-08T08:40:21.442Z,1016.01
2018-09-08T08:41:21.439Z,1015.95
2018-09-08T08:42:21.442Z,1015.93
2018-09-08T08:43:21.505Z,1015.96
2018-09-08T08:44:21.443Z,1015.93
2018-09-08T08:45:21.446Z,1015.96
2018-09-08T08:46:21.441Z,1015.99
2018-09-08T08:47:21.444Z,1015.93
2018-09-08T08:48:21.446Z,1016.03
2018-09-08T08:49:21.447Z,1016.01
2018-09-08T08:50:21.449Z,1015.99
2018-09-08T08:51:21.449Z,1016.01
2018-09-08T08:52:21.463Z,1016.03
2018-09-08T08:53:21.448Z,1016.07
2018-09-08T08:54:21.457Z,1016.05
2018-09-08T08:55:21.451Z,1016.10
2018-09-08T08:56:22.237Z,1016.08
2018-09-08T08:57:21.449Z,1016.07
2018-09-08T08:58:21.455Z,1016.09
2018-09-08T08:59:21.450Z,1016.14
2018-09-08T09:00:21.452Z,1016.10
2018-09-08T09:01:21.452Z,1016.10
2018-09-08T09:02:21.453Z,1016.15
2018-09-08T09:03:21.456Z,1016.16
2018-09-08T09:04:21.452Z,1016.12
2018-09-08T09:05:21.454Z,1016.11
2018-09-08T09:06:21.455Z,1016.11
2018-09-08T09:07:21.452Z,1016.08
2018-09-08T09:08:21.812Z,1016.10
2018-09-08T09:09:21.457Z,1016.10
2018-09-08T09:10:21.460Z,1016.08
2018-09-08T09:11:21.456Z,1016.10
2018-09-08T09:12:21.472Z,1016.09
2018-09-08T09:13:21.510Z,1016.11
2018-09-08T09:14:21.462Z,1016.10
2018-09-08T09:15:21.846Z,1016.07
2018-09-08T09:16:21.461Z,1016.10
2018-09-08T09:17:21.461Z,1016.10
2018-09-08T09:18:21.730Z,1016.12
2018-09-08T09:19:21.461Z,1016.14
2018-09-08T09:20:21.462Z,1016.09
2018-09-08T09:21:21.465Z,1016.13
2018-09-08T09:22:21.466Z,1016.15
2018-09-08T09:23:21.515Z,1016.15
2018-09-08T09:24:21.967Z,1016.17
2018-09-08T09:25:21.469Z,1016.11
2018-09-08T09:26:21.468Z,1016.11
2018-09-08T09:27:21.468Z,1016.15
2018-09-08T09:28:21.469Z,1016.12
2018-09-08T09:29:21.468Z,1016.09
2018-09-08T09:30:21.470Z,1016.07
2018-09-08T09:31:21.470Z,1016.08
2018-09-08T09:32:21.475Z,1016.04
2018-09-08T09:33:21.474Z,1016.11
2018-09-08T09:34:21.476Z,1016.12
2018-09-08T09:35:21.476Z,1016.08
2018-09-08T09:36:21.475Z,1016.09
2018-09-08T09:37:21.538Z,1016.02
2018-09-08T09:38:21.477Z,1016.07
2018-09-08T09:39:21.477Z,1016.06
2018-09-08T09:40:21.481Z,1016.03
2018-09-08T09:41:21.475Z,1016.04
2018-09-08T09:42:21.485Z,1016.02
2018-09-08T09:43:21.481Z,1016.01
2018-09-08T09:44:21.529Z,1015.96
2018-09-08T09:45:21.486Z,1015.99
2018-09-08T09:46:21.485Z,1015.94
2018-09-08T09:47:21.484Z,1015.90
2018-09-08T09:48:21.492Z,1015.98
2018-09-08T09:49:21.486Z,1015.98
2018-09-08T09:50:21.487Z,1015.96
2018-09-08T09:51:21.490Z,1015.94
2018-09-08T09:52:21.489Z,1015.93
2018-09-08T09:53:21.489Z,1015.88
2018-09-08T09:54:21.493Z,1015.81
2018-09-08T09:55:21.496Z,1015.87
2018-09-08T09:56:21.490Z,1015.93
2018-09-08T09:57:21.497Z,1015.90
2018-09-08T09:58:21.507Z,1015.88
2018-09-08T09:59:21.497Z,1015.94
2018-09-08T10:00:21.505Z,1015.88
2018-09-08T10:01:21.501Z,1015.87
2018-09-08T10:02:21.501Z,1015.87
2018-09-08T10:03:21.499Z,1015.83
2018-09-08T10:04:21.503Z,1015.86
2018-09-08T10:05:21.508Z,1015.86
2018-09-08T10:06:21.502Z,1015.88
2018-09-08T10:07:21.499Z,1015.87
2018-09-08T10:08:21.502Z,1015.84
2018-09-08T10:09:21.508Z,1015.82
2018-09-08T10:10:21.514Z,1015.84
2018-09-08T10:11:21.504Z,1015.79
2018-09-08T10:12:21.508Z,1015.81
2018-09-08T10:13:21.527Z,1015.86
2018-09-08T10:14:21.515Z,1015.85
2018-09-08T10:15:21.512Z,1015.93
2018-09-08T10:16:21.512Z,1015.89
2018-09-08T10:17:21.511Z,1015.88
2018-09-08T10:18:21.517Z,1015.86
2018-09-08T10:19:21.517Z,1015.88
2018-09-08T10:20:21.517Z,1015.87
2018-09-08T10:21:21.517Z,1015.91
2018-09-08T10:22:21.519Z,1015.89
2018-09-08T10:23:21.594Z,1015.96
2018-09-08T10:24:21.522Z,1015.82
2018-09-08T10:25:21.521Z,1015.88
2018-09-08T10:26:21.581Z,1015.89
2018-09-08T10:27:21.525Z,1015.92
2018-09-08T10:28:21.524Z,1015.83
2018-09-08T10:29:21.529Z,1015.90
2018-09-08T10:30:21.535Z,1015.95
2018-09-08T10:31:21.525Z,1015.95
2018-09-08T10:32:21.528Z,1015.92
2018-09-08T10:33:21.528Z,1015.91
2018-09-08T10:34:21.525Z,1015.90
2018-09-08T10:35:21.525Z,1015.86
2018-09-08T10:36:21.537Z,1015.93
2018-09-08T10:37:21.533Z,1015.92
2018-09-08T10:38:21.534Z,1015.95
2018-09-08T10:39:21.533Z,1015.95
2018-09-08T10:40:21.540Z,1015.97
2018-09-08T10:41:22.272Z,1015.98
2018-09-08T10:42:21.535Z,1015.96
2018-09-08T10:43:21.539Z,1015.97
2018-09-08T10:44:21.538Z,1015.94
2018-09-08T10:45:21.540Z,1015.97
2018-09-08T10:46:21.542Z,1015.98
2018-09-08T10:47:21.540Z,1015.99
2018-09-08T10:48:21.546Z,1015.95
2018-09-08T10:49:21.544Z,1015.96
2018-09-08T10:50:21.545Z,1015.96
2018-09-08T10:51:21.546Z,1015.92
2018-09-08T10:52:21.546Z,1015.92
2018-09-08T10:53:22.349Z,1015.91
2018-09-08T10:54:21.549Z,1015.89
2018-09-08T10:55:21.549Z,1015.95
2018-09-08T10:56:21.550Z,1015.97
2018-09-08T10:57:21.550Z,1015.93
2018-09-08T10:58:21.555Z,1015.97
2018-09-08T10:59:21.552Z,1016.00
2018-09-08T11:00:21.554Z,1015.94
2018-09-08T11:01:21.560Z,1015.99
2018-09-08T11:02:21.773Z,1016.02
2018-09-08T11:03:21.557Z,1015.98
2018-09-08T11:04:22.354Z,1015.96
2018-09-08T11:05:21.559Z,1016.01
2018-09-08T11:06:21.563Z,1015.87
2018-09-08T11:07:21.561Z,1015.94
2018-09-08T11:08:21.563Z,1015.99
2018-09-08T11:09:21.564Z,1015.94
2018-09-08T11:10:21.567Z,1015.90
2018-09-08T11:11:21.567Z,1015.91
2018-09-08T11:12:21.568Z,1015.94
2018-09-08T11:13:21.569Z,1015.94
2018-09-08T11:14:21.572Z,1015.94
2018-09-08T11:15:21.571Z,1015.97
2018-09-08T11:16:21.574Z,1015.95
2018-09-08T11:17:21.573Z,1015.90
2018-09-08T11:18:21.578Z,1015.95
2018-09-08T11:19:21.579Z,1015.94
2018-09-08T11:20:21.581Z,1015.93
2018-09-08T11:21:21.581Z,1015.98
2018-09-08T11:22:21.580Z,1015.98
2018-09-08T11:23:21.584Z,1015.96
2018-09-08T11:24:21.605Z,1015.96
2018-09-08T11:25:21.584Z,1016.01
2018-09-08T11:26:21.588Z,1015.95
2018-09-08T11:27:21.592Z,1016.08
2018-09-08T11:28:21.589Z,1016.05
2018-09-08T11:29:21.591Z,1016.12
2018-09-08T11:30:21.590Z,1016.04
2018-09-08T11:31:21.593Z,1016.06
2018-09-08T11:32:21.595Z,1016.03
2018-09-08T11:33:21.596Z,1016.03
2018-09-08T11:34:21.601Z,1016.06
2018-09-08T11:35:21.599Z,1016.17
2018-09-08T11:36:21.601Z,1016.13
2018-09-08T11:37:21.608Z,1016.17
2018-09-08T11:38:21.693Z,1016.15
2018-09-08T11:39:21.615Z,1016.14
2018-09-08T11:40:21.608Z,1016.15
2018-09-08T11:41:21.610Z,1016.14
2018-09-08T11:42:21.610Z,1016.11
2018-09-08T11:43:22.294Z,1016.13
2018-09-08T11:44:21.612Z,1016.03
2018-09-08T11:45:21.614Z,1016.11
2018-09-08T11:46:21.616Z,1016.09
2018-09-08T11:47:21.617Z,1016.05
2018-09-08T11:48:21.619Z,1016.09
2018-09-08T11:49:21.629Z,1016.06
2018-09-08T11:50:22.368Z,1016.02
2018-09-08T11:51:21.624Z,1016.04
2018-09-08T11:52:21.626Z,1016.05
2018-09-08T11:53:21.627Z,1016.09
2018-09-08T11:54:21.628Z,1016.05
2018-09-08T11:55:21.631Z,1016.03
2018-09-08T11:56:21.632Z,1016.00
2018-09-08T11:57:22.297Z,1016.00
2018-09-08T11:58:21.635Z,1015.99
2018-09-08T11:59:21.636Z,1015.96
2018-09-08T12:00:21.636Z,1015.95
2018-09-08T12:01:21.641Z,1015.94
2018-09-08T12:02:21.642Z,1015.93
2018-09-08T12:03:21.644Z,1015.94
2018-09-08T12:04:21.643Z,1015.93
2018-09-08T12:05:21.646Z,1015.95